sensor_id;sensor_type;location;lat;lon;timestamp;temperature;humidity
59015;DHT22;44799;53.382;14.666;2022-10-16T00:00:39;16.60;99.90
59015;DHT22;44799;53.382;14.666;2022-10-16T00:03:06;16.10;99.90
59015;DHT22;44799;53.382;14.666;2022-10-16T00:05:33;15.90;99.90
59015;DHT22;44799;53.382;14.666;2022-10-16T00:08:03;16.00;99.90
59015;DHT22;44799;53.382;14.666;2022-10-16T00:10:29;15.90;99.90
59015;DHT22;44799;53.382;14.666;2022-10-16T00:12:55;16.00;99.90
59015;DHT22;44799;53.382;14.666;2022-10-16T00:15:21;15.00;99.90
59015;DHT22;44799;53.382;14.666;2022-10-16T00:17:46;16.30;99.90
59015;DHT22;44799;53.382;14.666;2022-10-16T00:20:12;15.90;99.90
59015;DHT22;44799;53.382;14.666;2022-10-16T00:22:38;15.90;99.90
59015;DHT22;44799;53.382;14.666;2022-10-16T00:25:04;15.90;99.90
59015;DHT22;44799;53.382;14.666;2022-10-16T00:27:30;18.10;99.90
59015;DHT22;44799;53.382;14.666;2022-10-16T00:29:56;16.90;99.90
59015;DHT22;44799;53.382;14.666;2022-10-16T00:32:22;15.90;99.90
59015;DHT22;44799;53.382;14.666;2022-10-16T00:34:47;15.90;99.90
59015;DHT22;44799;53.382;14.666;2022-10-16T00:37:14;14.30;99.90
59015;DHT22;44799;53.382;14.666;2022-10-16T00:39:39;14.40;99.90
59015;DHT22;44799;53.382;14.666;2022-10-16T00:42:05;15.80;99.90
59015;DHT22;44799;53.382;14.666;2022-10-16T00:44:48;15.40;99.90
59015;DHT22;44799;53.382;14.666;2022-10-16T00:47:29;16.40;99.90
59015;DHT22;44799;53.382;14.666;2022-10-16T00:50:13;15.90;99.90
59015;DHT22;44799;53.382;14.666;2022-10-16T00:52:45;15.00;99.90
59015;DHT22;44799;53.382;14.666;2022-10-16T00:55:12;15.90;99.90
59015;DHT22;44799;53.382;14.666;2022-10-16T00:57:39;15.20;99.90
59015;DHT22;44799;53.382;14.666;2022-10-16T01:00:08;15.90;99.90
59015;DHT22;44799;53.382;14.666;2022-10-16T01:02:34;16.00;99.90
59015;DHT22;44799;53.382;14.666;2022-10-16T01:05:01;15.90;99.90
59015;DHT22;44799;53.382;14.666;2022-10-16T01:10:40;15.90;99.90
59015;DHT22;44799;53.382;14.666;2022-10-16T01:15:55;16.10;99.90
59015;DHT22;44799;53.382;14.666;2022-10-16T01:18:34;16.00;99.90
59015;DHT22;44799;53.382;14.666;2022-10-16T01:21:05;15.90;99.90
59015;DHT22;44799;53.382;14.666;2022-10-16T01:23:37;16.30;99.90
59015;DHT22;44799;53.382;14.666;2022-10-16T01:26:31;16.00;99.90
59015;DHT22;44799;53.382;14.666;2022-10-16T01:29:18;16.00;99.90
59015;DHT22;44799;53.382;14.666;2022-10-16T01:31:50;16.00;99.90
59015;DHT22;44799;53.382;14.666;2022-10-16T01:34:28;16.00;99.90
59015;DHT22;44799;53.382;14.666;2022-10-16T01:37:04;16.10;99.90
59015;DHT22;44799;53.382;14.666;2022-10-16T01:39:33;16.10;99.90
59015;DHT22;44799;53.382;14.666;2022-10-16T01:42:05;16.00;99.90
59015;DHT22;44799;53.382;14.666;2022-10-16T01:44:33;16.10;99.90
59015;DHT22;44799;53.382;14.666;2022-10-16T01:47:02;16.10;99.90
59015;DHT22;44799;53.382;14.666;2022-10-16T01:49:32;17.00;99.90
59015;DHT22;44799;53.382;14.666;2022-10-16T01:52:04;16.10;99.90
59015;DHT22;44799;53.382;14.666;2022-10-16T01:54:33;16.10;99.90
59015;DHT22;44799;53.382;14.666;2022-10-16T01:57:01;16.10;99.90
59015;DHT22;44799;53.382;14.666;2022-10-16T01:59:32;16.10;99.90
59015;DHT22;44799;53.382;14.666;2022-10-16T02:02:01;16.10;99.90
59015;DHT22;44799;53.382;14.666;2022-10-16T02:04:55;14.70;99.90
59015;DHT22;44799;53.382;14.666;2022-10-16T02:07:18;16.20;99.90
59015;DHT22;44799;53.382;14.666;2022-10-16T02:09:45;16.20;99.90
59015;DHT22;44799;53.382;14.666;2022-10-16T02:12:27;16.20;99.90
59015;DHT22;44799;53.382;14.666;2022-10-16T02:14:53;16.10;99.90
59015;DHT22;44799;53.382;14.666;2022-10-16T02:17:20;16.10;99.90
59015;DHT22;44799;53.382;14.666;2022-10-16T02:19:48;16.10;99.90
59015;DHT22;44799;53.382;14.666;2022-10-16T02:22:28;14.40;99.90
59015;DHT22;44799;53.382;14.666;2022-10-16T02:30:45;16.00;99.90
59015;DHT22;44799;53.382;14.666;2022-10-16T02:33:14;16.00;99.90
59015;DHT22;44799;53.382;14.666;2022-10-16T02:35:41;16.00;99.90
59015;DHT22;44799;53.382;14.666;2022-10-16T02:38:09;16.00;99.90
59015;DHT22;44799;53.382;14.666;2022-10-16T02:40:36;15.20;99.90
59015;DHT22;44799;53.382;14.666;2022-10-16T02:43:04;16.00;99.90
59015;DHT22;44799;53.382;14.666;2022-10-16T02:45:30;14.50;99.90
59015;DHT22;44799;53.382;14.666;2022-10-16T02:47:56;16.00;99.90
59015;DHT22;44799;53.382;14.666;2022-10-16T02:50:22;14.10;99.90
59015;DHT22;44799;53.382;14.666;2022-10-16T02:52:50;16.30;99.90
59015;DHT22;44799;53.382;14.666;2022-10-16T02:55:16;17.10;99.90
59015;DHT22;44799;53.382;14.666;2022-10-16T02:57:42;15.90;99.90
59015;DHT22;44799;53.382;14.666;2022-10-16T03:00:12;15.90;99.90
59015;DHT22;44799;53.382;14.666;2022-10-16T03:02:39;16.00;99.90
59015;DHT22;44799;53.382;14.666;2022-10-16T03:05:05;17.50;99.90
59015;DHT22;44799;53.382;14.666;2022-10-16T03:07:32;18.30;99.90
59015;DHT22;44799;53.382;14.666;2022-10-16T03:09:57;16.00;99.90
59015;DHT22;44799;53.382;14.666;2022-10-16T03:12:27;16.10;99.90
59015;DHT22;44799;53.382;14.666;2022-10-16T03:14:53;16.00;99.90
59015;DHT22;44799;53.382;14.666;2022-10-16T03:17:23;15.40;99.90
59015;DHT22;44799;53.382;14.666;2022-10-16T03:19:49;16.00;99.90
59015;DHT22;44799;53.382;14.666;2022-10-16T03:22:15;16.00;99.90
59015;DHT22;44799;53.382;14.666;2022-10-16T03:24:41;16.60;99.90
59015;DHT22;44799;53.382;14.666;2022-10-16T03:27:08;17.60;99.90
59015;DHT22;44799;53.382;14.666;2022-10-16T03:29:34;15.90;99.90
59015;DHT22;44799;53.382;14.666;2022-10-16T03:32:00;16.00;99.90
59015;DHT22;44799;53.382;14.666;2022-10-16T03:34:26;15.90;99.90
59015;DHT22;44799;53.382;14.666;2022-10-16T03:36:53;15.90;99.90
59015;DHT22;44799;53.382;14.666;2022-10-16T03:39:19;15.90;99.90
59015;DHT22;44799;53.382;14.666;2022-10-16T03:41:45;15.90;99.90
59015;DHT22;44799;53.382;14.666;2022-10-16T03:44:14;14.70;99.90
59015;DHT22;44799;53.382;14.666;2022-10-16T03:46:41;14.40;99.90
59015;DHT22;44799;53.382;14.666;2022-10-16T03:49:06;15.90;99.90
59015;DHT22;44799;53.382;14.666;2022-10-16T03:51:33;15.90;99.90
59015;DHT22;44799;53.382;14.666;2022-10-16T03:53:58;15.90;99.90
59015;DHT22;44799;53.382;14.666;2022-10-16T03:56:24;15.90;99.90
59015;DHT22;44799;53.382;14.666;2022-10-16T03:58:50;15.90;99.90
59015;DHT22;44799;53.382;14.666;2022-10-16T04:01:16;15.80;99.90
59015;DHT22;44799;53.382;14.666;2022-10-16T04:03:42;15.90;99.90
59015;DHT22;44799;53.382;14.666;2022-10-16T04:06:08;15.80;99.90
59015;DHT22;44799;53.382;14.666;2022-10-16T04:08:34;15.80;99.90
59015;DHT22;44799;53.382;14.666;2022-10-16T04:11:02;15.90;99.90
59015;DHT22;44799;53.382;14.666;2022-10-16T04:13:28;17.20;99.90
59015;DHT22;44799;53.382;14.666;2022-10-16T04:15:54;15.80;99.90
59015;DHT22;44799;53.382;14.666;2022-10-16T04:18:20;15.10;99.90
59015;DHT22;44799;53.382;14.666;2022-10-16T04:20:45;15.80;99.90
59015;DHT22;44799;53.382;14.666;2022-10-16T04:23:12;15.40;99.90
59015;DHT22;44799;53.382;14.666;2022-10-16T04:25:38;15.90;99.90
59015;DHT22;44799;53.382;14.666;2022-10-16T04:28:04;15.90;99.90
59015;DHT22;44799;53.382;14.666;2022-10-16T04:30:30;15.90;99.90
59015;DHT22;44799;53.382;14.666;2022-10-16T04:32:56;14.10;99.90
59015;DHT22;44799;53.382;14.666;2022-10-16T04:35:22;15.90;99.90
59015;DHT22;44799;53.382;14.666;2022-10-16T04:37:48;16.60;99.90
59015;DHT22;44799;53.382;14.666;2022-10-16T04:40:14;15.80;99.90
59015;DHT22;44799;53.382;14.666;2022-10-16T04:42:40;15.70;99.90
59015;DHT22;44799;53.382;14.666;2022-10-16T04:45:07;15.80;99.90
59015;DHT22;44799;53.382;14.666;2022-10-16T04:47:33;15.70;99.90
59015;DHT22;44799;53.382;14.666;2022-10-16T04:52:28;15.60;99.90
59015;DHT22;44799;53.382;14.666;2022-10-16T04:54:54;15.60;99.90
59015;DHT22;44799;53.382;14.666;2022-10-16T04:57:21;15.70;99.90
59015;DHT22;44799;53.382;14.666;2022-10-16T04:59:47;15.70;99.90
59015;DHT22;44799;53.382;14.666;2022-10-16T05:02:13;15.70;99.90
59015;DHT22;44799;53.382;14.666;2022-10-16T05:04:39;15.30;99.90
59015;DHT22;44799;53.382;14.666;2022-10-16T05:07:05;14.60;99.90
59015;DHT22;44799;53.382;14.666;2022-10-16T05:09:31;16.30;99.90
59015;DHT22;44799;53.382;14.666;2022-10-16T05:11:57;15.70;99.90
59015;DHT22;44799;53.382;14.666;2022-10-16T05:14:23;14.30;99.90
59015;DHT22;44799;53.382;14.666;2022-10-16T05:19:15;15.70;99.90
59015;DHT22;44799;53.382;14.666;2022-10-16T05:21:41;15.00;99.90
59015;DHT22;44799;53.382;14.666;2022-10-16T05:24:07;15.60;99.90
59015;DHT22;44799;53.382;14.666;2022-10-16T05:26:33;15.70;99.90
59015;DHT22;44799;53.382;14.666;2022-10-16T05:28:59;15.00;99.90
59015;DHT22;44799;53.382;14.666;2022-10-16T05:31:25;13.80;99.90
59015;DHT22;44799;53.382;14.666;2022-10-16T05:33:51;15.80;99.90
59015;DHT22;44799;53.382;14.666;2022-10-16T05:36:17;14.60;99.90
59015;DHT22;44799;53.382;14.666;2022-10-16T05:38:43;16.90;99.90
59015;DHT22;44799;53.382;14.666;2022-10-16T05:41:09;17.80;99.90
59015;DHT22;44799;53.382;14.666;2022-10-16T05:43:36;17.70;99.90
59015;DHT22;44799;53.382;14.666;2022-10-16T05:46:05;15.60;99.90
59015;DHT22;44799;53.382;14.666;2022-10-16T05:48:32;15.70;99.90
59015;DHT22;44799;53.382;14.666;2022-10-16T05:50:59;15.60;99.90
59015;DHT22;44799;53.382;14.666;2022-10-16T05:53:27;14.80;99.90
59015;DHT22;44799;53.382;14.666;2022-10-16T05:55:55;17.70;99.90
59015;DHT22;44799;53.382;14.666;2022-10-16T05:58:22;14.50;99.90
59015;DHT22;44799;53.382;14.666;2022-10-16T06:00:59;15.50;99.90
59015;DHT22;44799;53.382;14.666;2022-10-16T06:03:25;15.30;99.90
59015;DHT22;44799;53.382;14.666;2022-10-16T06:05:51;15.60;99.90
59015;DHT22;44799;53.382;14.666;2022-10-16T06:08:18;15.50;99.90
59015;DHT22;44799;53.382;14.666;2022-10-16T06:10:45;15.60;99.90
59015;DHT22;44799;53.382;14.666;2022-10-16T06:13:12;15.40;99.90
59015;DHT22;44799;53.382;14.666;2022-10-16T06:15:39;14.50;99.90
59015;DHT22;44799;53.382;14.666;2022-10-16T06:18:08;15.50;99.90
59015;DHT22;44799;53.382;14.666;2022-10-16T06:20:34;15.50;99.90
59015;DHT22;44799;53.382;14.666;2022-10-16T06:23:00;16.00;99.90
59015;DHT22;44799;53.382;14.666;2022-10-16T06:25:27;14.10;99.90
59015;DHT22;44799;53.382;14.666;2022-10-16T06:27:53;15.50;99.90
59015;DHT22;44799;53.382;14.666;2022-10-16T06:30:19;15.50;99.90
59015;DHT22;44799;53.382;14.666;2022-10-16T06:32:44;15.60;99.90
59015;DHT22;44799;53.382;14.666;2022-10-16T06:35:10;15.60;99.90
59015;DHT22;44799;53.382;14.666;2022-10-16T06:37:36;15.70;99.90
59015;DHT22;44799;53.382;14.666;2022-10-16T06:40:02;15.60;99.90
59015;DHT22;44799;53.382;14.666;2022-10-16T06:42:29;15.60;99.90
59015;DHT22;44799;53.382;14.666;2022-10-16T06:44:55;15.60;99.90
59015;DHT22;44799;53.382;14.666;2022-10-16T06:47:21;14.10;99.90
59015;DHT22;44799;53.382;14.666;2022-10-16T06:49:47;15.60;99.90
59015;DHT22;44799;53.382;14.666;2022-10-16T06:52:14;15.70;99.90
59015;DHT22;44799;53.382;14.666;2022-10-16T06:54:40;14.80;99.90
59015;DHT22;44799;53.382;14.666;2022-10-16T06:57:06;15.70;99.90
59015;DHT22;44799;53.382;14.666;2022-10-16T06:59:31;16.00;99.90
59015;DHT22;44799;53.382;14.666;2022-10-16T07:01:58;15.70;99.90
59015;DHT22;44799;53.382;14.666;2022-10-16T07:04:24;15.60;99.90
59015;DHT22;44799;53.382;14.666;2022-10-16T07:06:49;16.70;99.90
59015;DHT22;44799;53.382;14.666;2022-10-16T07:09:17;16.70;99.90
59015;DHT22;44799;53.382;14.666;2022-10-16T07:11:43;15.80;99.90
59015;DHT22;44799;53.382;14.666;2022-10-16T07:14:17;15.90;99.90
59015;DHT22;44799;53.382;14.666;2022-10-16T07:16:44;15.90;99.90
59015;DHT22;44799;53.382;14.666;2022-10-16T07:19:10;16.00;99.90
59015;DHT22;44799;53.382;14.666;2022-10-16T07:21:38;16.70;99.90
59015;DHT22;44799;53.382;14.666;2022-10-16T07:24:06;16.60;99.90
59015;DHT22;44799;53.382;14.666;2022-10-16T07:26:34;16.10;99.90
59015;DHT22;44799;53.382;14.666;2022-10-16T07:29:01;16.10;99.90
59015;DHT22;44799;53.382;14.666;2022-10-16T07:31:28;16.10;99.90
59015;DHT22;44799;53.382;14.666;2022-10-16T07:33:54;16.20;99.90
59015;DHT22;44799;53.382;14.666;2022-10-16T07:36:21;16.30;99.90
59015;DHT22;44799;53.382;14.666;2022-10-16T07:38:47;14.70;99.90
59015;DHT22;44799;53.382;14.666;2022-10-16T07:41:19;16.50;99.90
59015;DHT22;44799;53.382;14.666;2022-10-16T07:43:50;16.50;99.90
59015;DHT22;44799;53.382;14.666;2022-10-16T07:46:17;16.60;99.90
59015;DHT22;44799;53.382;14.666;2022-10-16T07:48:44;15.70;99.90
59015;DHT22;44799;53.382;14.666;2022-10-16T07:51:14;16.80;99.90
59015;DHT22;44799;53.382;14.666;2022-10-16T07:53:40;16.90;99.90
59015;DHT22;44799;53.382;14.666;2022-10-16T07:56:07;16.90;99.90
59015;DHT22;44799;53.382;14.666;2022-10-16T07:58:34;17.30;99.90
59015;DHT22;44799;53.382;14.666;2022-10-16T08:01:09;17.00;99.90
59015;DHT22;44799;53.382;14.666;2022-10-16T08:03:36;17.10;99.90
59015;DHT22;44799;53.382;14.666;2022-10-16T08:06:03;17.10;99.90
59015;DHT22;44799;53.382;14.666;2022-10-16T08:08:30;17.20;99.90
59015;DHT22;44799;53.382;14.666;2022-10-16T08:10:56;18.30;99.90
59015;DHT22;44799;53.382;14.666;2022-10-16T08:13:23;17.20;99.90
59015;DHT22;44799;53.382;14.666;2022-10-16T08:15:53;17.40;99.90
59015;DHT22;44799;53.382;14.666;2022-10-16T08:18:19;17.50;99.90
59015;DHT22;44799;53.382;14.666;2022-10-16T08:20:45;17.50;99.90
59015;DHT22;44799;53.382;14.666;2022-10-16T08:23:12;17.50;99.90
59015;DHT22;44799;53.382;14.666;2022-10-16T08:25:39;17.90;99.90
59015;DHT22;44799;53.382;14.666;2022-10-16T08:28:06;17.70;99.90
59015;DHT22;44799;53.382;14.666;2022-10-16T08:30:33;17.60;99.90
59015;DHT22;44799;53.382;14.666;2022-10-16T08:32:59;17.60;99.90
59015;DHT22;44799;53.382;14.666;2022-10-16T08:35:25;17.80;99.90
59015;DHT22;44799;53.382;14.666;2022-10-16T08:37:51;17.90;99.90
59015;DHT22;44799;53.382;14.666;2022-10-16T08:40:33;17.90;99.90
59015;DHT22;44799;53.382;14.666;2022-10-16T08:48:48;18.10;99.90
59015;DHT22;44799;53.382;14.666;2022-10-16T08:51:29;18.10;99.90
59015;DHT22;44799;53.382;14.666;2022-10-16T08:54:12;19.10;99.90
59015;DHT22;44799;53.382;14.666;2022-10-16T08:56:40;18.10;99.90
59015;DHT22;44799;53.382;14.666;2022-10-16T08:59:10;18.20;99.90
59015;DHT22;44799;53.382;14.666;2022-10-16T09:01:43;18.20;99.90
59015;DHT22;44799;53.382;14.666;2022-10-16T09:07:04;18.30;99.90
59015;DHT22;44799;53.382;14.666;2022-10-16T09:12:24;18.40;99.90
59015;DHT22;44799;53.382;14.666;2022-10-16T09:17:56;18.40;99.90
59015;DHT22;44799;53.382;14.666;2022-10-16T09:31:22;18.60;99.90
59015;DHT22;44799;53.382;14.666;2022-10-16T09:33:54;18.50;99.90
59015;DHT22;44799;53.382;14.666;2022-10-16T09:39:53;17.60;99.90
59015;DHT22;44799;53.382;14.666;2022-10-16T09:45:42;17.50;99.90
59015;DHT22;44799;53.382;14.666;2022-10-16T09:48:11;18.50;99.90
59015;DHT22;44799;53.382;14.666;2022-10-16T09:54:15;18.20;99.90
59015;DHT22;44799;53.382;14.666;2022-10-16T10:00:08;17.60;99.90
59015;DHT22;44799;53.382;14.666;2022-10-16T10:02:36;18.70;99.90
59015;DHT22;44799;53.382;14.666;2022-10-16T10:05:26;18.80;99.90
59015;DHT22;44799;53.382;14.666;2022-10-16T10:08:02;19.00;99.90
59015;DHT22;44799;53.382;14.666;2022-10-16T10:10:41;18.90;99.90
59015;DHT22;44799;53.382;14.666;2022-10-16T10:13:22;18.90;99.90
59015;DHT22;44799;53.382;14.666;2022-10-16T10:15:50;18.90;99.90
59015;DHT22;44799;53.382;14.666;2022-10-16T10:18:21;18.90;99.90
59015;DHT22;44799;53.382;14.666;2022-10-16T10:21:00;18.90;99.90
59015;DHT22;44799;53.382;14.666;2022-10-16T10:23:27;18.90;99.90
59015;DHT22;44799;53.382;14.666;2022-10-16T10:28:47;18.90;99.90
59015;DHT22;44799;53.382;14.666;2022-10-16T10:34:25;19.00;99.90
59015;DHT22;44799;53.382;14.666;2022-10-16T10:40:13;19.10;99.90
59015;DHT22;44799;53.382;14.666;2022-10-16T10:42:51;19.20;99.90
59015;DHT22;44799;53.382;14.666;2022-10-16T10:45:37;19.30;99.90
59015;DHT22;44799;53.382;14.666;2022-10-16T10:50:57;18.50;99.90
59015;DHT22;44799;53.382;14.666;2022-10-16T11:01:18;19.60;99.90
59015;DHT22;44799;53.382;14.666;2022-10-16T11:06:57;19.50;99.90
59015;DHT22;44799;53.382;14.666;2022-10-16T11:09:38;19.50;99.90
59015;DHT22;44799;53.382;14.666;2022-10-16T11:12:27;19.50;99.90
59015;DHT22;44799;53.382;14.666;2022-10-16T11:15:14;19.50;99.90
59015;DHT22;44799;53.382;14.666;2022-10-16T11:20:36;19.50;99.90
59015;DHT22;44799;53.382;14.666;2022-10-16T11:25:49;19.50;99.90
59015;DHT22;44799;53.382;14.666;2022-10-16T11:28:25;19.50;99.90
59015;DHT22;44799;53.382;14.666;2022-10-16T11:31:08;19.80;99.90
59015;DHT22;44799;53.382;14.666;2022-10-16T11:33:39;19.50;99.90
59015;DHT22;44799;53.382;14.666;2022-10-16T11:41:39;19.30;99.90
59015;DHT22;44799;53.382;14.666;2022-10-16T11:46:51;19.30;99.90
59015;DHT22;44799;53.382;14.666;2022-10-16T11:49:24;19.30;99.90
59015;DHT22;44799;53.382;14.666;2022-10-16T11:55:19;19.20;99.90
59015;DHT22;44799;53.382;14.666;2022-10-16T11:57:29;19.20;99.90
59015;DHT22;44799;53.382;14.666;2022-10-16T12:00:53;19.10;99.90
59015;DHT22;44799;53.382;14.666;2022-10-16T12:04:05;19.10;99.90
59015;DHT22;44799;53.382;14.666;2022-10-16T12:08:36;19.40;99.90
59015;DHT22;44799;53.382;14.666;2022-10-16T12:13:50;18.90;99.90
59015;DHT22;44799;53.382;14.666;2022-10-16T12:18:46;19.00;99.90
59015;DHT22;44799;53.382;14.666;2022-10-16T12:21:14;19.00;99.90
59015;DHT22;44799;53.382;14.666;2022-10-16T12:23:50;19.20;99.90
59015;DHT22;44799;53.382;14.666;2022-10-16T12:26:31;19.20;99.90
59015;DHT22;44799;53.382;14.666;2022-10-16T12:31:45;19.30;99.90
59015;DHT22;44799;53.382;14.666;2022-10-16T12:34:44;19.50;99.90
59015;DHT22;44799;53.382;14.666;2022-10-16T12:37:14;19.50;99.90
59015;DHT22;44799;53.382;14.666;2022-10-16T12:39:44;19.50;99.90
59015;DHT22;44799;53.382;14.666;2022-10-16T12:44:52;19.60;99.90
59015;DHT22;44799;53.382;14.666;2022-10-16T12:49:59;19.70;99.90
59015;DHT22;44799;53.382;14.666;2022-10-16T12:52:37;19.60;99.90
59015;DHT22;44799;53.382;14.666;2022-10-16T12:55:06;19.60;99.90
59015;DHT22;44799;53.382;14.666;2022-10-16T13:00:53;19.70;99.90
59015;DHT22;44799;53.382;14.666;2022-10-16T13:09:13;19.80;99.90
59015;DHT22;44799;53.382;14.666;2022-10-16T13:20:12;20.00;99.90
59015;DHT22;44799;53.382;14.666;2022-10-16T13:23:11;20.00;99.90
59015;DHT22;44799;53.382;14.666;2022-10-16T13:28:19;20.10;99.90
59015;DHT22;44799;53.382;14.666;2022-10-16T13:30:58;20.20;99.90
59015;DHT22;44799;53.382;14.666;2022-10-16T13:33:36;20.30;99.90
59015;DHT22;44799;53.382;14.666;2022-10-16T13:36:04;20.30;99.90
59015;DHT22;44799;53.382;14.666;2022-10-16T13:38:35;20.40;99.90
59015;DHT22;44799;53.382;14.666;2022-10-16T13:41:06;20.40;99.90
59015;DHT22;44799;53.382;14.666;2022-10-16T13:43:50;20.30;99.90
59015;DHT22;44799;53.382;14.666;2022-10-16T13:46:19;20.30;99.90
59015;DHT22;44799;53.382;14.666;2022-10-16T13:49:12;20.20;99.90
59015;DHT22;44799;53.382;14.666;2022-10-16T13:51:38;20.10;99.90
59015;DHT22;44799;53.382;14.666;2022-10-16T13:54:04;20.10;99.90
59015;DHT22;44799;53.382;14.666;2022-10-16T13:56:32;20.10;99.90
59015;DHT22;44799;53.382;14.666;2022-10-16T13:59:06;20.00;99.90
59015;DHT22;44799;53.382;14.666;2022-10-16T14:01:41;19.90;99.90
59015;DHT22;44799;53.382;14.666;2022-10-16T14:04:10;19.90;99.90
59015;DHT22;44799;53.382;14.666;2022-10-16T14:06:41;19.90;99.90
59015;DHT22;44799;53.382;14.666;2022-10-16T14:09:20;19.80;99.90
59015;DHT22;44799;53.382;14.666;2022-10-16T14:12:02;19.70;99.90
59015;DHT22;44799;53.382;14.666;2022-10-16T14:15:15;19.60;99.90
59015;DHT22;44799;53.382;14.666;2022-10-16T14:17:29;19.70;99.90
59015;DHT22;44799;53.382;14.666;2022-10-16T14:19:59;19.60;99.90
59015;DHT22;44799;53.382;14.666;2022-10-16T14:22:38;19.50;99.90
59015;DHT22;44799;53.382;14.666;2022-10-16T14:28:15;19.60;99.90
59015;DHT22;44799;53.382;14.666;2022-10-16T14:30:54;19.60;99.90
59015;DHT22;44799;53.382;14.666;2022-10-16T14:33:31;19.70;99.90
59015;DHT22;44799;53.382;14.666;2022-10-16T14:36:05;19.70;99.90
59015;DHT22;44799;53.382;14.666;2022-10-16T14:38:42;19.80;99.90
59015;DHT22;44799;53.382;14.666;2022-10-16T14:41:08;19.90;99.90
59015;DHT22;44799;53.382;14.666;2022-10-16T14:43:37;19.80;99.90
59015;DHT22;44799;53.382;14.666;2022-10-16T14:46:16;19.60;99.90
59015;DHT22;44799;53.382;14.666;2022-10-16T14:48:43;21.40;99.90
59015;DHT22;44799;53.382;14.666;2022-10-16T14:51:15;19.70;99.90
59015;DHT22;44799;53.382;14.666;2022-10-16T14:53:42;19.70;99.90
59015;DHT22;44799;53.382;14.666;2022-10-16T14:56:14;18.60;99.90
59015;DHT22;44799;53.382;14.666;2022-10-16T14:58:41;19.70;99.90
59015;DHT22;44799;53.382;14.666;2022-10-16T15:01:09;19.70;99.90
59015;DHT22;44799;53.382;14.666;2022-10-16T15:03:36;18.70;99.90
59015;DHT22;44799;53.382;14.666;2022-10-16T15:06:02;21.10;99.90
59015;DHT22;44799;53.382;14.666;2022-10-16T15:08:28;19.50;99.90
59015;DHT22;44799;53.382;14.666;2022-10-16T15:10:55;19.60;99.90
59015;DHT22;44799;53.382;14.666;2022-10-16T15:13:21;19.50;99.90
59015;DHT22;44799;53.382;14.666;2022-10-16T15:15:47;19.50;99.90
59015;DHT22;44799;53.382;14.666;2022-10-16T15:18:15;19.60;99.90
59015;DHT22;44799;53.382;14.666;2022-10-16T15:20:50;19.50;99.90
59015;DHT22;44799;53.382;14.666;2022-10-16T15:23:21;19.50;99.90
59015;DHT22;44799;53.382;14.666;2022-10-16T15:25:53;19.40;99.90
59015;DHT22;44799;53.382;14.666;2022-10-16T15:28:20;19.40;99.90
59015;DHT22;44799;53.382;14.666;2022-10-16T15:30:49;19.40;99.90
59015;DHT22;44799;53.382;14.666;2022-10-16T15:33:21;19.40;99.90
59015;DHT22;44799;53.382;14.666;2022-10-16T15:35:49;19.30;99.90
59015;DHT22;44799;53.382;14.666;2022-10-16T15:38:17;19.30;99.90
59015;DHT22;44799;53.382;14.666;2022-10-16T15:40:43;19.30;99.90
59015;DHT22;44799;53.382;14.666;2022-10-16T15:43:09;19.40;99.90
59015;DHT22;44799;53.382;14.666;2022-10-16T15:45:35;19.30;99.90
59015;DHT22;44799;53.382;14.666;2022-10-16T15:48:01;19.30;99.90
59015;DHT22;44799;53.382;14.666;2022-10-16T15:50:27;19.20;99.90
59015;DHT22;44799;53.382;14.666;2022-10-16T15:52:53;19.20;99.90
59015;DHT22;44799;53.382;14.666;2022-10-16T15:55:19;19.10;99.90
59015;DHT22;44799;53.382;14.666;2022-10-16T15:57:45;19.10;99.90
59015;DHT22;44799;53.382;14.666;2022-10-16T16:00:14;19.00;99.90
59015;DHT22;44799;53.382;14.666;2022-10-16T16:02:42;18.80;99.90
59015;DHT22;44799;53.382;14.666;2022-10-16T16:05:09;19.70;99.90
59015;DHT22;44799;53.382;14.666;2022-10-16T16:07:37;18.90;99.90
59015;DHT22;44799;53.382;14.666;2022-10-16T16:10:04;18.80;99.90
59015;DHT22;44799;53.382;14.666;2022-10-16T16:12:32;18.70;99.90
59015;DHT22;44799;53.382;14.666;2022-10-16T16:14:58;18.70;99.90
59015;DHT22;44799;53.382;14.666;2022-10-16T16:17:24;18.60;99.90
59015;DHT22;44799;53.382;14.666;2022-10-16T16:19:50;18.50;99.90
59015;DHT22;44799;53.382;14.666;2022-10-16T16:22:17;18.50;99.90
59015;DHT22;44799;53.382;14.666;2022-10-16T16:24:43;18.30;99.90
59015;DHT22;44799;53.382;14.666;2022-10-16T16:27:09;20.20;99.90
59015;DHT22;44799;53.382;14.666;2022-10-16T16:29:35;18.10;99.90
59015;DHT22;44799;53.382;14.666;2022-10-16T16:32:01;18.10;99.90
59015;DHT22;44799;53.382;14.666;2022-10-16T16:34:28;18.10;99.90
59015;DHT22;44799;53.382;14.666;2022-10-16T16:36:55;18.00;99.90
59015;DHT22;44799;53.382;14.666;2022-10-16T16:39:22;20.30;99.90
59015;DHT22;44799;53.382;14.666;2022-10-16T16:41:48;17.70;99.90
59015;DHT22;44799;53.382;14.666;2022-10-16T16:44:15;17.90;99.90
59015;DHT22;44799;53.382;14.666;2022-10-16T16:46:43;17.90;99.90
59015;DHT22;44799;53.382;14.666;2022-10-16T16:49:11;17.90;99.90
59015;DHT22;44799;53.382;14.666;2022-10-16T16:51:37;17.80;99.90
59015;DHT22;44799;53.382;14.666;2022-10-16T16:54:04;17.80;99.90
59015;DHT22;44799;53.382;14.666;2022-10-16T16:56:31;17.70;99.90
59015;DHT22;44799;53.382;14.666;2022-10-16T16:58:57;17.70;99.90
59015;DHT22;44799;53.382;14.666;2022-10-16T17:01:25;17.70;99.90
59015;DHT22;44799;53.382;14.666;2022-10-16T17:03:54;17.60;99.90
59015;DHT22;44799;53.382;14.666;2022-10-16T17:06:23;19.40;99.90
59015;DHT22;44799;53.382;14.666;2022-10-16T17:08:49;17.50;99.90
59015;DHT22;44799;53.382;14.666;2022-10-16T17:11:23;17.50;99.90
59015;DHT22;44799;53.382;14.666;2022-10-16T17:13:50;17.40;99.90
59015;DHT22;44799;53.382;14.666;2022-10-16T17:16:18;17.40;99.90
59015;DHT22;44799;53.382;14.666;2022-10-16T17:18:43;17.40;99.90
59015;DHT22;44799;53.382;14.666;2022-10-16T17:21:10;17.40;99.90
59015;DHT22;44799;53.382;14.666;2022-10-16T17:23:36;17.40;99.90
59015;DHT22;44799;53.382;14.666;2022-10-16T17:26:08;17.40;99.90
59015;DHT22;44799;53.382;14.666;2022-10-16T17:28:34;17.90;99.90
59015;DHT22;44799;53.382;14.666;2022-10-16T17:31:28;17.30;99.90
59015;DHT22;44799;53.382;14.666;2022-10-16T17:33:54;17.30;99.90
59015;DHT22;44799;53.382;14.666;2022-10-16T17:36:21;17.20;99.90
59015;DHT22;44799;53.382;14.666;2022-10-16T17:38:47;15.70;99.90
59015;DHT22;44799;53.382;14.666;2022-10-16T17:41:21;17.30;99.90
59015;DHT22;44799;53.382;14.666;2022-10-16T17:43:48;17.20;99.90